Cameley, United Kingdom
Current Conditions -  °F | °C
As of 12:50 AM on Saturday 20 Dec 2014 (Local Time) from EGGD Reporting Station
Clear Clear  
Wind Chill: 34°   Ceiling: Unl
Heat Index: 43°   Visibility: 6mi
Dew Point: 37°   Wind: 21mph
Humidity: 81%   Direction: 260°W
Pressure: 30.24"   Gusts: NA
Location:  51.32°N, 2.56°W
Report Text: EGGD 200050Z 26018KT CAVOK 06/03 Q1024
Loading
Personal Weather Stations






























Interactive Weather Map New forecast layout! Learn more

10-Day Weather Forecast

Advertisements
Track Severe Weather on mobile